sensor_id;sensor_type;location;lat;lon;timestamp;pressure;altitude;pressure_sealevel;temperature;humidity
64352;BME280;50680;52.626;-8.668;2022-12-16T00:01:17;101963.34;;;-3.55;100.00
64352;BME280;50680;52.626;-8.668;2022-12-16T00:03:50;101965.94;;;-3.54;100.00
64352;BME280;50680;52.626;-8.668;2022-12-16T00:06:21;101966.00;;;-3.51;100.00
64352;BME280;50680;52.626;-8.668;2022-12-16T00:08:49;101967.72;;;-3.50;100.00
64352;BME280;50680;52.626;-8.668;2022-12-16T00:11:17;101956.69;;;-3.46;100.00
64352;BME280;50680;52.626;-8.668;2022-12-16T00:13:45;101969.53;;;-3.43;100.00
64352;BME280;50680;52.626;-8.668;2022-12-16T00:16:15;101968.75;;;-3.40;100.00
64352;BME280;50680;52.626;-8.668;2022-12-16T00:18:43;101965.34;;;-3.41;100.00
64352;BME280;50680;52.626;-8.668;2022-12-16T00:21:10;101960.25;;;-3.37;100.00
64352;BME280;50680;52.626;-8.668;2022-12-16T00:23:37;101957.66;;;-3.37;100.00
64352;BME280;50680;52.626;-8.668;2022-12-16T00:26:07;101961.16;;;-3.35;100.00
64352;BME280;50680;52.626;-8.668;2022-12-16T00:28:35;101955.19;;;-3.34;100.00
64352;BME280;50680;52.626;-8.668;2022-12-16T00:31:02;101962.09;;;-3.30;100.00
64352;BME280;50680;52.626;-8.668;2022-12-16T00:33:30;101951.00;;;-3.29;100.00
64352;BME280;50680;52.626;-8.668;2022-12-16T00:35:57;101952.72;;;-3.28;100.00
64352;BME280;50680;52.626;-8.668;2022-12-16T00:38:25;101954.44;;;-3.27;100.00
64352;BME280;50680;52.626;-8.668;2022-12-16T00:40:52;101949.31;;;-3.27;100.00
64352;BME280;50680;52.626;-8.668;2022-12-16T00:43:20;101949.34;;;-3.26;100.00
64352;BME280;50680;52.626;-8.668;2022-12-16T00:45:47;101948.50;;;-3.26;100.00
64352;BME280;50680;52.626;-8.668;2022-12-16T00:48:14;101941.72;;;-3.23;100.00
64352;BME280;50680;52.626;-8.668;2022-12-16T00:50:45;101938.31;;;-3.22;100.00
64352;BME280;50680;52.626;-8.668;2022-12-16T00:53:18;101944.31;;;-3.21;100.00
64352;BME280;50680;52.626;-8.668;2022-12-16T00:55:45;101940.84;;;-3.23;100.00
64352;BME280;50680;52.626;-8.668;2022-12-16T00:58:12;101947.69;;;-3.22;100.00
64352;BME280;50680;52.626;-8.668;2022-12-16T01:00:40;101956.25;;;-3.23;100.00
64352;BME280;50680;52.626;-8.668;2022-12-16T01:03:07;101947.66;;;-3.25;100.00
64352;BME280;50680;52.626;-8.668;2022-12-16T01:05:37;101948.56;;;-3.22;100.00
64352;BME280;50680;52.626;-8.668;2022-12-16T01:08:04;101945.13;;;-3.22;100.00
64352;BME280;50680;52.626;-8.668;2022-12-16T01:10:31;101946.03;;;-3.20;100.00
64352;BME280;50680;52.626;-8.668;2022-12-16T01:12:58;101940.06;;;-3.19;100.00
64352;BME280;50680;52.626;-8.668;2022-12-16T01:15:25;101941.78;;;-3.18;100.00
64352;BME280;50680;52.626;-8.668;2022-12-16T01:17:51;101935.84;;;-3.15;100.00
64352;BME280;50680;52.626;-8.668;2022-12-16T01:20:20;101935.81;;;-3.17;100.00
64352;BME280;50680;52.626;-8.668;2022-12-16T01:22:47;101943.56;;;-3.14;100.00
64352;BME280;50680;52.626;-8.668;2022-12-16T01:25:14;101935.88;;;-3.14;100.00
64352;BME280;50680;52.626;-8.668;2022-12-16T01:27:43;101936.75;;;-3.12;100.00
64352;BME280;50680;52.626;-8.668;2022-12-16T01:30:10;101930.81;;;-3.11;100.00
64352;BME280;50680;52.626;-8.668;2022-12-16T01:32:37;101937.63;;;-3.10;100.00
64352;BME280;50680;52.626;-8.668;2022-12-16T01:35:04;101941.06;;;-3.11;100.00
64352;BME280;50680;52.626;-8.668;2022-12-16T01:37:51;101941.13;;;-3.08;100.00
64352;BME280;50680;52.626;-8.668;2022-12-16T01:40:22;101939.44;;;-3.06;100.00
64352;BME280;50680;52.626;-8.668;2022-12-16T01:42:49;101945.41;;;-3.05;100.00
64352;BME280;50680;52.626;-8.668;2022-12-16T01:47:55;101939.47;;;-3.04;100.00
64352;BME280;50680;52.626;-8.668;2022-12-16T01:50:24;101938.59;;;-3.03;100.00
64352;BME280;50680;52.626;-8.668;2022-12-16T01:52:54;101931.78;;;-3.03;100.00
64352;BME280;50680;52.626;-8.668;2022-12-16T01:55:25;101932.63;;;-3.04;100.00
64352;BME280;50680;52.626;-8.668;2022-12-16T01:58:00;101933.38;;;-3.09;100.00
64352;BME280;50680;52.626;-8.668;2022-12-16T02:00:28;101927.28;;;-3.16;100.00
64352;BME280;50680;52.626;-8.668;2022-12-16T02:02:56;101926.31;;;-3.23;100.00
64352;BME280;50680;52.626;-8.668;2022-12-16T02:05:24;101927.00;;;-3.33;100.00
64352;BME280;50680;52.626;-8.668;2022-12-16T02:13:25;101925.13;;;-3.42;100.00
64352;BME280;50680;52.626;-8.668;2022-12-16T02:24:01;101929.91;;;-3.60;100.00
64352;BME280;50680;52.626;-8.668;2022-12-16T02:35:29;101931.78;;;-3.97;100.00
64352;BME280;50680;52.626;-8.668;2022-12-16T02:38:29;101939.53;;;-3.94;100.00
64352;BME280;50680;52.626;-8.668;2022-12-16T02:41:02;101924.09;;;-3.97;100.00
64352;BME280;50680;52.626;-8.668;2022-12-16T02:46:16;101931.81;;;-3.95;100.00
64352;BME280;50680;52.626;-8.668;2022-12-16T02:48:43;101936.91;;;-3.97;100.00
64352;BME280;50680;52.626;-8.668;2022-12-16T02:51:10;101941.16;;;-3.98;100.00
64352;BME280;50680;52.626;-8.668;2022-12-16T02:53:38;101940.28;;;-3.98;100.00
64352;BME280;50680;52.626;-8.668;2022-12-16T03:01:38;101935.09;;;-4.03;100.00
64352;BME280;50680;52.626;-8.668;2022-12-16T03:07:12;101937.63;;;-4.04;100.00
64352;BME280;50680;52.626;-8.668;2022-12-16T03:09:40;101937.69;;;-4.01;100.00
64352;BME280;50680;52.626;-8.668;2022-12-16T03:12:11;101931.66;;;-4.02;100.00
64352;BME280;50680;52.626;-8.668;2022-12-16T03:14:42;101925.75;;;-3.99;100.00
64352;BME280;50680;52.626;-8.668;2022-12-16T03:17:12;101917.13;;;-4.04;100.00
64352;BME280;50680;52.626;-8.668;2022-12-16T03:19:42;101917.09;;;-4.06;100.00
64352;BME280;50680;52.626;-8.668;2022-12-16T03:22:15;101905.84;;;-4.12;100.00
64352;BME280;50680;52.626;-8.668;2022-12-16T03:24:43;101906.63;;;-4.17;100.00
64352;BME280;50680;52.626;-8.668;2022-12-16T03:30:10;101907.31;;;-4.25;100.00
64352;BME280;50680;52.626;-8.668;2022-12-16T03:37:49;101902.66;;;-4.42;100.00
64352;BME280;50680;52.626;-8.668;2022-12-16T03:40:18;101907.69;;;-4.48;100.00
64352;BME280;50680;52.626;-8.668;2022-12-16T03:42:46;101903.25;;;-4.54;100.00
64352;BME280;50680;52.626;-8.668;2022-12-16T03:45:37;101910.06;;;-4.56;100.00
64352;BME280;50680;52.626;-8.668;2022-12-16T03:48:07;101881.47;;;-4.74;100.00
64352;BME280;50680;52.626;-8.668;2022-12-16T03:50:36;101900.34;;;-4.70;100.00
64352;BME280;50680;52.626;-8.668;2022-12-16T03:53:04;101898.50;;;-4.76;100.00
64352;BME280;50680;52.626;-8.668;2022-12-16T03:55:31;101896.56;;;-4.86;100.00
64352;BME280;50680;52.626;-8.668;2022-12-16T03:57:58;101901.53;;;-4.93;100.00
64352;BME280;50680;52.626;-8.668;2022-12-16T04:00:25;101905.66;;;-4.99;100.00
64352;BME280;50680;52.626;-8.668;2022-12-16T04:02:51;101901.25;;;-5.05;100.00
64352;BME280;50680;52.626;-8.668;2022-12-16T04:05:19;101907.09;;;-5.09;100.00
64352;BME280;50680;52.626;-8.668;2022-12-16T04:07:46;101899.44;;;-5.09;100.00
64352;BME280;50680;52.626;-8.668;2022-12-16T04:10:12;101896.75;;;-5.15;100.00
64352;BME280;50680;52.626;-8.668;2022-12-16T04:12:39;101893.31;;;-5.16;100.00
64352;BME280;50680;52.626;-8.668;2022-12-16T04:15:25;101900.00;;;-5.22;100.00
64352;BME280;50680;52.626;-8.668;2022-12-16T04:18:17;101899.06;;;-5.24;100.00
64352;BME280;50680;52.626;-8.668;2022-12-16T04:21:03;101900.63;;;-5.30;100.00
64352;BME280;50680;52.626;-8.668;2022-12-16T04:24:12;101893.91;;;-5.27;100.00
64352;BME280;50680;52.626;-8.668;2022-12-16T04:26:49;101897.44;;;-5.22;100.00
64352;BME280;50680;52.626;-8.668;2022-12-16T04:29:41;101888.19;;;-5.17;100.00
64352;BME280;50680;52.626;-8.668;2022-12-16T04:32:28;101887.38;;;-5.15;100.00
64352;BME280;50680;52.626;-8.668;2022-12-16T04:35:19;101890.09;;;-5.07;100.00
64352;BME280;50680;52.626;-8.668;2022-12-16T04:38:04;101895.22;;;-5.08;100.00
64352;BME280;50680;52.626;-8.668;2022-12-16T04:40:49;101889.25;;;-5.07;100.00
64352;BME280;50680;52.626;-8.668;2022-12-16T04:43:35;101875.59;;;-5.08;100.00
64352;BME280;50680;52.626;-8.668;2022-12-16T04:46:21;101879.22;;;-5.00;100.00
64352;BME280;50680;52.626;-8.668;2022-12-16T04:49:06;101873.25;;;-4.99;100.00
64352;BME280;50680;52.626;-8.668;2022-12-16T04:51:52;101865.59;;;-4.99;100.00
64352;BME280;50680;52.626;-8.668;2022-12-16T04:54:37;101874.22;;;-4.94;100.00
64352;BME280;50680;52.626;-8.668;2022-12-16T04:57:22;101867.38;;;-4.96;100.00
64352;BME280;50680;52.626;-8.668;2022-12-16T05:00:08;101868.25;;;-4.94;100.00
64352;BME280;50680;52.626;-8.668;2022-12-16T05:02:53;101867.38;;;-4.96;100.00
64352;BME280;50680;52.626;-8.668;2022-12-16T05:05:39;101872.47;;;-4.96;100.00
64352;BME280;50680;52.626;-8.668;2022-12-16T05:08:24;101864.84;;;-4.95;100.00
64352;BME280;50680;52.626;-8.668;2022-12-16T05:11:09;101864.84;;;-4.95;100.00
64352;BME280;50680;52.626;-8.668;2022-12-16T05:13:55;101870.00;;;-4.92;100.00
64352;BME280;50680;52.626;-8.668;2022-12-16T05:16:41;101870.03;;;-4.90;100.00
64352;BME280;50680;52.626;-8.668;2022-12-16T05:19:26;101866.59;;;-4.92;100.00
64352;BME280;50680;52.626;-8.668;2022-12-16T05:22:11;101864.06;;;-4.91;100.00
64352;BME280;50680;52.626;-8.668;2022-12-16T05:24:57;101874.47;;;-4.84;100.00
64352;BME280;50680;52.626;-8.668;2022-12-16T05:27:42;101869.34;;;-4.84;100.00
64352;BME280;50680;52.626;-8.668;2022-12-16T05:30:28;101876.13;;;-4.85;100.00
64352;BME280;50680;52.626;-8.668;2022-12-16T05:33:13;101871.06;;;-4.83;100.00
64352;BME280;50680;52.626;-8.668;2022-12-16T05:35:59;101866.84;;;-4.81;100.00
64352;BME280;50680;52.626;-8.668;2022-12-16T05:38:44;101859.16;;;-4.81;100.00
64352;BME280;50680;52.626;-8.668;2022-12-16T05:41:30;101854.00;;;-4.84;100.00
64352;BME280;50680;52.626;-8.668;2022-12-16T05:44:15;101863.38;;;-4.83;100.00
64352;BME280;50680;52.626;-8.668;2022-12-16T05:47:01;101855.63;;;-4.86;100.00
64352;BME280;50680;52.626;-8.668;2022-12-16T05:49:47;101852.19;;;-4.88;100.00
64352;BME280;50680;52.626;-8.668;2022-12-16T05:52:32;101856.41;;;-4.91;100.00
64352;BME280;50680;52.626;-8.668;2022-12-16T05:55:17;101857.16;;;-4.95;100.00
64352;BME280;50680;52.626;-8.668;2022-12-16T05:58:03;101850.16;;;-5.02;100.00
64352;BME280;50680;52.626;-8.668;2022-12-16T06:00:48;101842.59;;;-4.97;100.00
64352;BME280;50680;52.626;-8.668;2022-12-16T06:03:34;101841.63;;;-5.02;100.00
64352;BME280;50680;52.626;-8.668;2022-12-16T06:06:20;101854.41;;;-5.02;100.00
64352;BME280;50680;52.626;-8.668;2022-12-16T06:09:05;101851.00;;;-5.03;100.00
64352;BME280;50680;52.626;-8.668;2022-12-16T06:11:51;101851.78;;;-5.05;100.00
64352;BME280;50680;52.626;-8.668;2022-12-16T06:14:36;101849.19;;;-5.08;100.00
64352;BME280;50680;52.626;-8.668;2022-12-16T06:17:22;101849.88;;;-5.14;100.00
64352;BME280;50680;52.626;-8.668;2022-12-16T06:20:07;101856.63;;;-5.18;100.00
64352;BME280;50680;52.626;-8.668;2022-12-16T06:22:53;101853.97;;;-5.22;100.00
64352;BME280;50680;52.626;-8.668;2022-12-16T06:25:39;101866.66;;;-5.25;100.00
64352;BME280;50680;52.626;-8.668;2022-12-16T06:28:25;101871.69;;;-5.29;100.00
64352;BME280;50680;52.626;-8.668;2022-12-16T06:31:11;101858.75;;;-5.35;100.00
64352;BME280;50680;52.626;-8.668;2022-12-16T06:33:57;101857.72;;;-5.43;100.00
64352;BME280;50680;52.626;-8.668;2022-12-16T06:36:42;101858.53;;;-5.44;100.00
64352;BME280;50680;52.626;-8.668;2022-12-16T06:39:28;101855.09;;;-5.46;100.00
64352;BME280;50680;52.626;-8.668;2022-12-16T06:42:18;101865.34;;;-5.44;100.00
64352;BME280;50680;52.626;-8.668;2022-12-16T06:45:04;101856.88;;;-5.42;100.00
64352;BME280;50680;52.626;-8.668;2022-12-16T06:47:54;101858.59;;;-5.42;100.00
64352;BME280;50680;52.626;-8.668;2022-12-16T06:50:39;101856.88;;;-5.42;100.00
64352;BME280;50680;52.626;-8.668;2022-12-16T06:53:25;101856.84;;;-5.43;100.00
64352;BME280;50680;52.626;-8.668;2022-12-16T06:56:10;101860.25;;;-5.44;100.00
64352;BME280;50680;52.626;-8.668;2022-12-16T06:58:56;101859.38;;;-5.45;100.00
64352;BME280;50680;52.626;-8.668;2022-12-16T07:01:41;101851.63;;;-5.48;100.00
64352;BME280;50680;52.626;-8.668;2022-12-16T07:04:27;101843.03;;;-5.52;100.00
64352;BME280;50680;52.626;-8.668;2022-12-16T07:07:26;101848.97;;;-5.53;100.00
64352;BME280;50680;52.626;-8.668;2022-12-16T07:10:11;101842.94;;;-5.55;100.00
64352;BME280;50680;52.626;-8.668;2022-12-16T07:12:58;101846.34;;;-5.54;100.00
64352;BME280;50680;52.626;-8.668;2022-12-16T07:15:45;101840.34;;;-5.56;100.00
64352;BME280;50680;52.626;-8.668;2022-12-16T07:18:30;101847.13;;;-5.58;100.00
64352;BME280;50680;52.626;-8.668;2022-12-16T07:21:16;101845.47;;;-5.56;100.00
64352;BME280;50680;52.626;-8.668;2022-12-16T07:24:01;101843.81;;;-5.54;100.00
64352;BME280;50680;52.626;-8.668;2022-12-16T07:26:47;101843.00;;;-5.53;100.00
64352;BME280;50680;52.626;-8.668;2022-12-16T07:29:32;101841.25;;;-5.54;100.00
64352;BME280;50680;52.626;-8.668;2022-12-16T07:32:18;101849.75;;;-5.55;100.00
64352;BME280;50680;52.626;-8.668;2022-12-16T07:35:03;101852.16;;;-5.61;100.00
64352;BME280;50680;52.626;-8.668;2022-12-16T07:37:48;101842.75;;;-5.62;100.00
64352;BME280;50680;52.626;-8.668;2022-12-16T07:40:34;101850.41;;;-5.62;100.00
64352;BME280;50680;52.626;-8.668;2022-12-16T07:43:20;101852.16;;;-5.61;100.00
64352;BME280;50680;52.626;-8.668;2022-12-16T07:46:06;101855.50;;;-5.62;100.00
64352;BME280;50680;52.626;-8.668;2022-12-16T07:48:51;101841.84;;;-5.64;100.00
64352;BME280;50680;52.626;-8.668;2022-12-16T07:51:37;101848.69;;;-5.63;100.00
64352;BME280;50680;52.626;-8.668;2022-12-16T07:54:22;101841.84;;;-5.64;100.00
64352;BME280;50680;52.626;-8.668;2022-12-16T07:57:08;101848.59;;;-5.67;100.00
64352;BME280;50680;52.626;-8.668;2022-12-16T07:59:53;101848.53;;;-5.70;100.00
64352;BME280;50680;52.626;-8.668;2022-12-16T08:02:39;101851.13;;;-5.68;100.00
64352;BME280;50680;52.626;-8.668;2022-12-16T08:05:25;101839.16;;;-5.71;100.00
64352;BME280;50680;52.626;-8.668;2022-12-16T08:08:10;101839.03;;;-5.75;100.00
64352;BME280;50680;52.626;-8.668;2022-12-16T08:10:56;101838.97;;;-5.77;100.00
64352;BME280;50680;52.626;-8.668;2022-12-16T08:13:41;101825.88;;;-5.89;100.00
64352;BME280;50680;52.626;-8.668;2022-12-16T08:16:26;101851.66;;;-5.80;100.00
64352;BME280;50680;52.626;-8.668;2022-12-16T08:19:12;101847.34;;;-5.82;100.00
64352;BME280;50680;52.626;-8.668;2022-12-16T08:21:57;101851.59;;;-5.83;100.00
64352;BME280;50680;52.626;-8.668;2022-12-16T08:24:43;101848.91;;;-5.88;100.00
64352;BME280;50680;52.626;-8.668;2022-12-16T08:27:28;101847.06;;;-5.93;100.00
64352;BME280;50680;52.626;-8.668;2022-12-16T08:30:14;101865.84;;;-5.91;100.00
64352;BME280;50680;52.626;-8.668;2022-12-16T08:32:59;101857.28;;;-5.93;100.00
64352;BME280;50680;52.626;-8.668;2022-12-16T08:35:46;101850.38;;;-5.97;100.00
64352;BME280;50680;52.626;-8.668;2022-12-16T08:38:31;101860.50;;;-6.02;100.00
64352;BME280;50680;52.626;-8.668;2022-12-16T08:41:18;101858.69;;;-6.05;100.00
64352;BME280;50680;52.626;-8.668;2022-12-16T08:44:04;101850.91;;;-6.11;100.00
64352;BME280;50680;52.626;-8.668;2022-12-16T08:46:49;101861.91;;;-6.12;100.00
64352;BME280;50680;52.626;-8.668;2022-12-16T08:49:35;101857.56;;;-6.14;100.00
64352;BME280;50680;52.626;-8.668;2022-12-16T08:52:26;101853.31;;;-6.15;100.00
64352;BME280;50680;52.626;-8.668;2022-12-16T08:55:16;101845.50;;;-6.20;100.00
64352;BME280;50680;52.626;-8.668;2022-12-16T08:58:01;101857.41;;;-6.20;100.00
64352;BME280;50680;52.626;-8.668;2022-12-16T09:00:47;101859.97;;;-6.20;100.00
64352;BME280;50680;52.626;-8.668;2022-12-16T09:03:35;101859.97;;;-6.20;100.00
64352;BME280;50680;52.626;-8.668;2022-12-16T09:06:20;101862.53;;;-6.20;100.00
64352;BME280;50680;52.626;-8.668;2022-12-16T09:09:07;101864.97;;;-6.24;100.00
64352;BME280;50680;52.626;-8.668;2022-12-16T09:11:53;101870.03;;;-6.25;100.00
64352;BME280;50680;52.626;-8.668;2022-12-16T09:14:38;101867.50;;;-6.25;100.00
64352;BME280;50680;52.626;-8.668;2022-12-16T09:17:24;101869.03;;;-6.30;100.00
64352;BME280;50680;52.626;-8.668;2022-12-16T09:20:09;101870.78;;;-6.29;100.00
64352;BME280;50680;52.626;-8.668;2022-12-16T09:22:55;101869.13;;;-6.27;100.00
64352;BME280;50680;52.626;-8.668;2022-12-16T09:25:40;101870.94;;;-6.25;100.00
64352;BME280;50680;52.626;-8.668;2022-12-16T09:28:26;101859.03;;;-6.24;100.00
64352;BME280;50680;52.626;-8.668;2022-12-16T09:31:11;101873.69;;;-6.17;100.00
64352;BME280;50680;52.626;-8.668;2022-12-16T09:33:56;101871.13;;;-6.17;100.00
64352;BME280;50680;52.626;-8.668;2022-12-16T09:36:42;101868.56;;;-6.17;100.00
64352;BME280;50680;52.626;-8.668;2022-12-16T09:39:27;101868.72;;;-6.12;100.00
64352;BME280;50680;52.626;-8.668;2022-12-16T09:42:31;101862.88;;;-6.08;100.00
64352;BME280;50680;52.626;-8.668;2022-12-16T09:45:57;101862.00;;;-6.09;100.00
64352;BME280;50680;52.626;-8.668;2022-12-16T09:51:46;101867.50;;;-5.93;100.00
64352;BME280;50680;52.626;-8.668;2022-12-16T09:54:34;101862.44;;;-5.90;100.00
64352;BME280;50680;52.626;-8.668;2022-12-16T09:57:21;101854.78;;;-5.90;100.00
64352;BME280;50680;52.626;-8.668;2022-12-16T10:00:19;101847.22;;;-5.87;100.00
64352;BME280;50680;52.626;-8.668;2022-12-16T10:03:15;101849.88;;;-5.84;100.00
64352;BME280;50680;52.626;-8.668;2022-12-16T10:06:15;101838.06;;;-5.79;100.00
64352;BME280;50680;52.626;-8.668;2022-12-16T10:18:16;101836.97;;;-5.55;100.00
64352;BME280;50680;52.626;-8.668;2022-12-16T10:21:05;101830.63;;;-5.35;100.00
64352;BME280;50680;52.626;-8.668;2022-12-16T10:24:30;101837.22;;;-5.10;100.00
64352;BME280;50680;52.626;-8.668;2022-12-16T10:27:56;101839.38;;;-4.88;100.00
64352;BME280;50680;52.626;-8.668;2022-12-16T10:30:36;101836.44;;;-4.67;100.00
64352;BME280;50680;52.626;-8.668;2022-12-16T10:33:26;101838.53;;;-4.49;100.00
64352;BME280;50680;52.626;-8.668;2022-12-16T10:36:22;101841.44;;;-4.32;100.00
64352;BME280;50680;52.626;-8.668;2022-12-16T10:42:30;101848.84;;;-4.02;100.00
64352;BME280;50680;52.626;-8.668;2022-12-16T10:46:03;101837.84;;;-3.97;100.00
64352;BME280;50680;52.626;-8.668;2022-12-16T10:48:41;101839.81;;;-3.83;100.00
64352;BME280;50680;52.626;-8.668;2022-12-16T10:51:28;101834.88;;;-3.72;100.00
64352;BME280;50680;52.626;-8.668;2022-12-16T10:54:40;101832.63;;;-3.54;100.00
64352;BME280;50680;52.626;-8.668;2022-12-16T11:00:51;101836.63;;;-3.18;100.00
64352;BME280;50680;52.626;-8.668;2022-12-16T11:03:38;101836.00;;;-3.02;100.00
64352;BME280;50680;52.626;-8.668;2022-12-16T11:06:36;101831.97;;;-2.87;100.00
64352;BME280;50680;52.626;-8.668;2022-12-16T11:09:30;101827.00;;;-2.75;100.00
64352;BME280;50680;52.626;-8.668;2022-12-16T11:12:27;101823.75;;;-2.60;100.00
64352;BME280;50680;52.626;-8.668;2022-12-16T11:15:27;101832.50;;;-2.44;100.00
64352;BME280;50680;52.626;-8.668;2022-12-16T11:18:18;101822.47;;;-2.25;100.00
64352;BME280;50680;52.626;-8.668;2022-12-16T11:21:13;101815.78;;;-2.08;100.00
64352;BME280;50680;52.626;-8.668;2022-12-16T11:26:58;101806.81;;;-1.63;100.00
64352;BME280;50680;52.626;-8.668;2022-12-16T11:30:02;101806.13;;;-1.43;100.00
64352;BME280;50680;52.626;-8.668;2022-12-16T11:32:55;101802.81;;;-1.27;100.00
64352;BME280;50680;52.626;-8.668;2022-12-16T11:35:51;101797.72;;;-1.19;100.00
64352;BME280;50680;52.626;-8.668;2022-12-16T11:38:43;101809.84;;;-1.01;100.00
64352;BME280;50680;52.626;-8.668;2022-12-16T11:41:34;101810.81;;;-0.81;100.00
64352;BME280;50680;52.626;-8.668;2022-12-16T11:44:48;101794.59;;;-0.60;100.00
64352;BME280;50680;52.626;-8.668;2022-12-16T11:47:44;101795.53;;;-0.41;100.00
64352;BME280;50680;52.626;-8.668;2022-12-16T11:50:33;101799.88;;;-0.30;100.00
64352;BME280;50680;52.626;-8.668;2022-12-16T11:56:29;101791.28;;;-0.29;100.00
64352;BME280;50680;52.626;-8.668;2022-12-16T12:02:25;101776.66;;;-0.32;100.00
64352;BME280;50680;52.626;-8.668;2022-12-16T12:05:28;101780.97;;;-0.35;100.00
64352;BME280;50680;52.626;-8.668;2022-12-16T12:08:25;101782.66;;;-0.41;100.00
64352;BME280;50680;52.626;-8.668;2022-12-16T12:11:23;101785.25;;;-0.38;100.00
64352;BME280;50680;52.626;-8.668;2022-12-16T12:17:29;101775.00;;;-0.10;100.00
64352;BME280;50680;52.626;-8.668;2022-12-16T12:26:36;101742.38;;;0.23;100.00
64352;BME280;50680;52.626;-8.668;2022-12-16T12:29:52;101732.06;;;0.40;100.00
64352;BME280;50680;52.626;-8.668;2022-12-16T12:32:46;101734.59;;;0.57;100.00
64352;BME280;50680;52.626;-8.668;2022-12-16T12:48:47;101732.81;;;0.96;100.00
64352;BME280;50680;52.626;-8.668;2022-12-16T12:51:37;101729.34;;;1.03;100.00
64352;BME280;50680;52.626;-8.668;2022-12-16T12:57:14;101734.44;;;1.19;100.00
64352;BME280;50680;52.626;-8.668;2022-12-16T13:00:18;101727.59;;;1.13;100.00
64352;BME280;50680;52.626;-8.668;2022-12-16T13:03:19;101726.75;;;1.02;100.00
64352;BME280;50680;52.626;-8.668;2022-12-16T13:06:09;101724.22;;;0.97;100.00
64352;BME280;50680;52.626;-8.668;2022-12-16T13:08:57;101735.41;;;0.91;100.00
64352;BME280;50680;52.626;-8.668;2022-12-16T13:18:11;101727.66;;;0.96;100.00
64352;BME280;50680;52.626;-8.668;2022-12-16T13:20:57;101725.91;;;1.04;100.00
64352;BME280;50680;52.626;-8.668;2022-12-16T13:23:44;101721.59;;;1.11;100.00
64352;BME280;50680;52.626;-8.668;2022-12-16T13:26:32;101719.84;;;1.13;100.00
64352;BME280;50680;52.626;-8.668;2022-12-16T13:29:23;101721.53;;;1.19;100.00
64352;BME280;50680;52.626;-8.668;2022-12-16T13:38:01;101700.81;;;1.31;100.00
64352;BME280;50680;52.626;-8.668;2022-12-16T13:40:56;101703.38;;;1.34;100.00
64352;BME280;50680;52.626;-8.668;2022-12-16T13:43:55;101697.31;;;1.40;100.00
64352;BME280;50680;52.626;-8.668;2022-12-16T13:46:52;101698.19;;;1.40;100.00
64352;BME280;50680;52.626;-8.668;2022-12-16T13:49:49;101700.75;;;1.42;100.00
64352;BME280;50680;52.626;-8.668;2022-12-16T13:55:43;101694.75;;;1.38;100.00
64352;BME280;50680;52.626;-8.668;2022-12-16T13:58:42;101692.19;;;1.34;100.00
64352;BME280;50680;52.626;-8.668;2022-12-16T14:04:46;101676.72;;;1.27;100.00
64352;BME280;50680;52.626;-8.668;2022-12-16T14:07:37;101675.03;;;1.26;100.00
64352;BME280;50680;52.626;-8.668;2022-12-16T14:10:40;101665.53;;;1.24;100.00
64352;BME280;50680;52.626;-8.668;2022-12-16T14:13:36;101662.16;;;1.12;100.00
64352;BME280;50680;52.626;-8.668;2022-12-16T14:16:51;101656.19;;;0.95;100.00
64352;BME280;50680;52.626;-8.668;2022-12-16T14:19:56;101653.72;;;0.80;100.00
64352;BME280;50680;52.626;-8.668;2022-12-16T14:26:12;101661.47;;;0.72;100.00
64352;BME280;50680;52.626;-8.668;2022-12-16T14:28:59;101659.72;;;0.74;100.00
64352;BME280;50680;52.626;-8.668;2022-12-16T14:31:48;101666.63;;;0.75;100.00
64352;BME280;50680;52.626;-8.668;2022-12-16T14:34:35;101672.63;;;0.75;100.00
64352;BME280;50680;52.626;-8.668;2022-12-16T14:37:36;101673.50;;;0.74;100.00
64352;BME280;50680;52.626;-8.668;2022-12-16T14:40:23;101670.09;;;0.68;100.00
64352;BME280;50680;52.626;-8.668;2022-12-16T14:43:18;101676.97;;;0.64;100.00
64352;BME280;50680;52.626;-8.668;2022-12-16T14:46:05;101665.78;;;0.62;100.00
64352;BME280;50680;52.626;-8.668;2022-12-16T14:48:50;101670.97;;;0.59;100.00
64352;BME280;50680;52.626;-8.668;2022-12-16T14:51:43;101665.81;;;0.53;100.00
64352;BME280;50680;52.626;-8.668;2022-12-16T14:57:19;101665.84;;;0.34;100.00
64352;BME280;50680;52.626;-8.668;2022-12-16T15:03:31;101657.25;;;0.35;100.00
64352;BME280;50680;52.626;-8.668;2022-12-16T15:06:32;101655.53;;;0.44;100.00
64352;BME280;50680;52.626;-8.668;2022-12-16T15:09:33;101653.78;;;0.46;100.00
64352;BME280;50680;52.626;-8.668;2022-12-16T15:12:23;101641.78;;;0.42;100.00
64352;BME280;50680;52.626;-8.668;2022-12-16T15:15:15;101646.06;;;0.40;100.00
64352;BME280;50680;52.626;-8.668;2022-12-16T15:18:02;101653.78;;;0.38;100.00
64352;BME280;50680;52.626;-8.668;2022-12-16T15:20:51;101654.69;;;0.34;100.00
64352;BME280;50680;52.626;-8.668;2022-12-16T15:23:41;101648.66;;;0.30;100.00
64352;BME280;50680;52.626;-8.668;2022-12-16T15:26:32;101649.53;;;0.28;100.00
64352;BME280;50680;52.626;-8.668;2022-12-16T15:32:31;101650.38;;;0.22;100.00
64352;BME280;50680;52.626;-8.668;2022-12-16T15:41:03;101650.41;;;-0.03;100.00
64352;BME280;50680;52.626;-8.668;2022-12-16T15:43:50;101648.69;;;-0.10;100.00
64352;BME280;50680;52.626;-8.668;2022-12-16T15:46:35;101647.00;;;-0.20;100.00
64352;BME280;50680;52.626;-8.668;2022-12-16T15:49:33;101649.56;;;-0.25;100.00
64352;BME280;50680;52.626;-8.668;2022-12-16T15:55:35;101653.00;;;-0.40;100.00
64352;BME280;50680;52.626;-8.668;2022-12-16T15:58:33;101658.13;;;-0.46;100.00
64352;BME280;50680;52.626;-8.668;2022-12-16T16:01:24;101653.81;;;-0.53;100.00
64352;BME280;50680;52.626;-8.668;2022-12-16T16:04:22;101658.09;;;-0.60;100.00
64352;BME280;50680;52.626;-8.668;2022-12-16T16:07:26;101663.22;;;-0.64;100.00
64352;BME280;50680;52.626;-8.668;2022-12-16T16:10:23;101658.09;;;-0.58;100.00
64352;BME280;50680;52.626;-8.668;2022-12-16T16:13:09;101652.09;;;-0.60;100.00
64352;BME280;50680;52.626;-8.668;2022-12-16T16:15:55;101657.22;;;-0.65;100.00